sensor_id;sensor_type;location;lat;lon;timestamp;temperature;humidity
3752;DHT22;50827;47.014;7.652;2023-08-12T00:01:39;21.10;99.90
3752;DHT22;50827;47.014;7.652;2023-08-12T00:04:06;21.00;99.90
3752;DHT22;50827;47.014;7.652;2023-08-12T00:06:33;21.00;99.90
3752;DHT22;50827;47.014;7.652;2023-08-12T00:08:59;20.90;99.90
3752;DHT22;50827;47.014;7.652;2023-08-12T00:11:26;20.90;99.90
3752;DHT22;50827;47.014;7.652;2023-08-12T00:13:53;21.00;99.90
3752;DHT22;50827;47.014;7.652;2023-08-12T00:16:20;21.00;99.90
3752;DHT22;50827;47.014;7.652;2023-08-12T00:18:46;21.00;99.90
3752;DHT22;50827;47.014;7.652;2023-08-12T00:21:14;21.00;99.90
3752;DHT22;50827;47.014;7.652;2023-08-12T00:23:41;20.90;99.90
3752;DHT22;50827;47.014;7.652;2023-08-12T00:26:09;21.00;99.90
3752;DHT22;50827;47.014;7.652;2023-08-12T00:28:36;21.00;99.90
3752;DHT22;50827;47.014;7.652;2023-08-12T00:31:03;20.90;99.90
3752;DHT22;50827;47.014;7.652;2023-08-12T00:33:30;21.00;99.90
3752;DHT22;50827;47.014;7.652;2023-08-12T00:35:57;20.90;99.90
3752;DHT22;50827;47.014;7.652;2023-08-12T00:38:24;20.90;99.90
3752;DHT22;50827;47.014;7.652;2023-08-12T00:40:51;20.80;99.90
3752;DHT22;50827;47.014;7.652;2023-08-12T00:43:17;20.80;99.90
3752;DHT22;50827;47.014;7.652;2023-08-12T00:45:44;20.70;99.90
3752;DHT22;50827;47.014;7.652;2023-08-12T00:48:11;20.70;99.90
3752;DHT22;50827;47.014;7.652;2023-08-12T00:50:41;20.70;99.90
3752;DHT22;50827;47.014;7.652;2023-08-12T00:53:08;20.70;99.90
3752;DHT22;50827;47.014;7.652;2023-08-12T00:55:35;20.60;99.90
3752;DHT22;50827;47.014;7.652;2023-08-12T00:58:03;20.60;99.90
3752;DHT22;50827;47.014;7.652;2023-08-12T01:00:31;20.60;99.90
3752;DHT22;50827;47.014;7.652;2023-08-12T01:03:00;20.60;99.90
3752;DHT22;50827;47.014;7.652;2023-08-12T01:05:29;20.60;99.90
3752;DHT22;50827;47.014;7.652;2023-08-12T01:07:56;20.50;99.90
3752;DHT22;50827;47.014;7.652;2023-08-12T01:10:25;20.50;99.90
3752;DHT22;50827;47.014;7.652;2023-08-12T01:13:09;20.50;99.90
3752;DHT22;50827;47.014;7.652;2023-08-12T01:15:38;20.50;99.90
3752;DHT22;50827;47.014;7.652;2023-08-12T01:18:07;20.60;99.90
3752;DHT22;50827;47.014;7.652;2023-08-12T01:20:34;20.60;99.90
3752;DHT22;50827;47.014;7.652;2023-08-12T01:23:21;20.50;99.90
3752;DHT22;50827;47.014;7.652;2023-08-12T01:25:49;20.60;99.90
3752;DHT22;50827;47.014;7.652;2023-08-12T01:28:15;20.50;99.90
3752;DHT22;50827;47.014;7.652;2023-08-12T01:30:49;20.50;99.90
3752;DHT22;50827;47.014;7.652;2023-08-12T01:33:46;20.50;99.90
3752;DHT22;50827;47.014;7.652;2023-08-12T01:36:18;20.50;99.90
3752;DHT22;50827;47.014;7.652;2023-08-12T01:38:45;20.40;99.90
3752;DHT22;50827;47.014;7.652;2023-08-12T01:41:13;20.40;99.90
3752;DHT22;50827;47.014;7.652;2023-08-12T01:43:42;20.40;99.90
3752;DHT22;50827;47.014;7.652;2023-08-12T01:46:10;20.40;99.90
3752;DHT22;50827;47.014;7.652;2023-08-12T01:48:37;20.40;99.90
3752;DHT22;50827;47.014;7.652;2023-08-12T01:51:03;20.30;99.90
3752;DHT22;50827;47.014;7.652;2023-08-12T01:53:30;20.40;99.90
3752;DHT22;50827;47.014;7.652;2023-08-12T01:55:57;20.30;99.90
3752;DHT22;50827;47.014;7.652;2023-08-12T01:58:23;20.30;99.90
3752;DHT22;50827;47.014;7.652;2023-08-12T02:00:53;20.30;99.90
3752;DHT22;50827;47.014;7.652;2023-08-12T02:03:19;20.30;99.90
3752;DHT22;50827;47.014;7.652;2023-08-12T02:05:46;20.20;99.90
3752;DHT22;50827;47.014;7.652;2023-08-12T02:08:13;20.20;99.90
3752;DHT22;50827;47.014;7.652;2023-08-12T02:10:40;20.10;99.90
3752;DHT22;50827;47.014;7.652;2023-08-12T02:13:07;20.10;99.90
3752;DHT22;50827;47.014;7.652;2023-08-12T02:15:33;20.20;99.90
3752;DHT22;50827;47.014;7.652;2023-08-12T02:18:00;20.20;99.90
3752;DHT22;50827;47.014;7.652;2023-08-12T02:20:27;20.20;99.90
3752;DHT22;50827;47.014;7.652;2023-08-12T02:22:54;20.20;99.90
3752;DHT22;50827;47.014;7.652;2023-08-12T02:25:20;20.20;99.90
3752;DHT22;50827;47.014;7.652;2023-08-12T02:27:47;20.20;99.90
3752;DHT22;50827;47.014;7.652;2023-08-12T02:30:14;20.20;99.90
3752;DHT22;50827;47.014;7.652;2023-08-12T02:32:41;20.20;99.90
3752;DHT22;50827;47.014;7.652;2023-08-12T02:35:10;20.30;99.90
3752;DHT22;50827;47.014;7.652;2023-08-12T02:37:37;20.30;99.90
3752;DHT22;50827;47.014;7.652;2023-08-12T02:40:04;20.30;99.90
3752;DHT22;50827;47.014;7.652;2023-08-12T02:42:31;20.40;99.90
3752;DHT22;50827;47.014;7.652;2023-08-12T02:44:58;20.40;99.90
3752;DHT22;50827;47.014;7.652;2023-08-12T02:47:27;20.40;99.90
3752;DHT22;50827;47.014;7.652;2023-08-12T02:49:54;20.40;99.90
3752;DHT22;50827;47.014;7.652;2023-08-12T02:52:21;20.40;99.90
3752;DHT22;50827;47.014;7.652;2023-08-12T02:54:47;20.30;99.90
3752;DHT22;50827;47.014;7.652;2023-08-12T02:57:14;20.30;99.90
3752;DHT22;50827;47.014;7.652;2023-08-12T02:59:41;20.20;99.90
3752;DHT22;50827;47.014;7.652;2023-08-12T03:02:08;20.20;99.90
3752;DHT22;50827;47.014;7.652;2023-08-12T03:04:34;20.10;99.90
3752;DHT22;50827;47.014;7.652;2023-08-12T03:07:01;20.10;99.90
3752;DHT22;50827;47.014;7.652;2023-08-12T03:09:29;20.10;99.90
3752;DHT22;50827;47.014;7.652;2023-08-12T03:11:56;20.10;99.90
3752;DHT22;50827;47.014;7.652;2023-08-12T03:14:23;20.10;99.90
3752;DHT22;50827;47.014;7.652;2023-08-12T03:16:49;20.10;99.90
3752;DHT22;50827;47.014;7.652;2023-08-12T03:19:16;20.00;99.90
3752;DHT22;50827;47.014;7.652;2023-08-12T03:21:43;20.00;99.90
3752;DHT22;50827;47.014;7.652;2023-08-12T03:24:09;20.00;99.90
3752;DHT22;50827;47.014;7.652;2023-08-12T03:26:36;20.10;99.90
3752;DHT22;50827;47.014;7.652;2023-08-12T03:29:03;20.00;99.90
3752;DHT22;50827;47.014;7.652;2023-08-12T03:31:29;20.00;99.90
3752;DHT22;50827;47.014;7.652;2023-08-12T03:33:56;20.00;99.90
3752;DHT22;50827;47.014;7.652;2023-08-12T03:36:23;20.10;99.90
3752;DHT22;50827;47.014;7.652;2023-08-12T03:38:50;20.00;99.90
3752;DHT22;50827;47.014;7.652;2023-08-12T03:41:16;20.00;99.90
3752;DHT22;50827;47.014;7.652;2023-08-12T03:43:43;20.00;99.90
3752;DHT22;50827;47.014;7.652;2023-08-12T03:46:10;20.00;99.90
3752;DHT22;50827;47.014;7.652;2023-08-12T03:48:36;20.00;99.90
3752;DHT22;50827;47.014;7.652;2023-08-12T03:51:03;19.90;99.90
3752;DHT22;50827;47.014;7.652;2023-08-12T03:53:30;19.90;99.90
3752;DHT22;50827;47.014;7.652;2023-08-12T03:55:56;19.90;99.90
3752;DHT22;50827;47.014;7.652;2023-08-12T03:58:23;19.90;99.90
3752;DHT22;50827;47.014;7.652;2023-08-12T04:00:50;19.90;99.90
3752;DHT22;50827;47.014;7.652;2023-08-12T04:03:16;19.90;99.90
3752;DHT22;50827;47.014;7.652;2023-08-12T04:05:48;19.90;99.90
3752;DHT22;50827;47.014;7.652;2023-08-12T04:08:15;19.90;99.90
3752;DHT22;50827;47.014;7.652;2023-08-12T04:10:44;19.90;99.90
3752;DHT22;50827;47.014;7.652;2023-08-12T04:13:11;19.90;99.90
3752;DHT22;50827;47.014;7.652;2023-08-12T04:15:38;20.00;99.90
3752;DHT22;50827;47.014;7.652;2023-08-12T04:18:05;20.00;99.90
3752;DHT22;50827;47.014;7.652;2023-08-12T04:20:32;19.90;99.90
3752;DHT22;50827;47.014;7.652;2023-08-12T04:22:58;19.90;99.90
3752;DHT22;50827;47.014;7.652;2023-08-12T04:25:25;19.90;99.90
3752;DHT22;50827;47.014;7.652;2023-08-12T04:27:52;19.90;99.90
3752;DHT22;50827;47.014;7.652;2023-08-12T04:30:19;20.00;99.90
3752;DHT22;50827;47.014;7.652;2023-08-12T04:32:46;19.90;99.90
3752;DHT22;50827;47.014;7.652;2023-08-12T04:35:13;19.90;99.90
3752;DHT22;50827;47.014;7.652;2023-08-12T04:37:40;20.00;99.90
3752;DHT22;50827;47.014;7.652;2023-08-12T04:40:07;20.00;99.90
3752;DHT22;50827;47.014;7.652;2023-08-12T04:42:34;20.00;99.90
3752;DHT22;50827;47.014;7.652;2023-08-12T04:45:01;20.00;99.90
3752;DHT22;50827;47.014;7.652;2023-08-12T04:47:27;20.00;99.90
3752;DHT22;50827;47.014;7.652;2023-08-12T04:49:55;20.00;99.90
3752;DHT22;50827;47.014;7.652;2023-08-12T04:52:22;20.00;99.90
3752;DHT22;50827;47.014;7.652;2023-08-12T04:54:52;20.10;99.90
3752;DHT22;50827;47.014;7.652;2023-08-12T04:57:19;20.00;99.90
3752;DHT22;50827;47.014;7.652;2023-08-12T04:59:45;20.10;99.90
3752;DHT22;50827;47.014;7.652;2023-08-12T05:02:12;20.10;99.90
3752;DHT22;50827;47.014;7.652;2023-08-12T05:04:39;20.20;99.90
3752;DHT22;50827;47.014;7.652;2023-08-12T05:07:07;20.20;99.90
3752;DHT22;50827;47.014;7.652;2023-08-12T05:09:34;20.20;99.90
3752;DHT22;50827;47.014;7.652;2023-08-12T05:12:00;20.20;99.90
3752;DHT22;50827;47.014;7.652;2023-08-12T05:14:27;20.30;99.90
3752;DHT22;50827;47.014;7.652;2023-08-12T05:16:54;20.30;99.90
3752;DHT22;50827;47.014;7.652;2023-08-12T05:19:20;20.40;99.90
3752;DHT22;50827;47.014;7.652;2023-08-12T05:21:47;20.40;99.90
3752;DHT22;50827;47.014;7.652;2023-08-12T05:24:14;20.40;99.90
3752;DHT22;50827;47.014;7.652;2023-08-12T05:26:42;20.50;99.90
3752;DHT22;50827;47.014;7.652;2023-08-12T05:29:08;20.40;99.90
3752;DHT22;50827;47.014;7.652;2023-08-12T05:31:35;20.50;99.90
3752;DHT22;50827;47.014;7.652;2023-08-12T05:34:02;20.40;99.90
3752;DHT22;50827;47.014;7.652;2023-08-12T05:36:29;20.50;99.90
3752;DHT22;50827;47.014;7.652;2023-08-12T05:38:56;20.50;99.90
3752;DHT22;50827;47.014;7.652;2023-08-12T05:41:23;20.50;99.90
3752;DHT22;50827;47.014;7.652;2023-08-12T05:43:50;20.50;99.90
3752;DHT22;50827;47.014;7.652;2023-08-12T05:46:17;20.50;99.90
3752;DHT22;50827;47.014;7.652;2023-08-12T05:48:46;20.50;99.90
3752;DHT22;50827;47.014;7.652;2023-08-12T05:51:14;20.50;99.90
3752;DHT22;50827;47.014;7.652;2023-08-12T05:53:41;20.50;99.90
3752;DHT22;50827;47.014;7.652;2023-08-12T05:56:08;20.50;99.90
3752;DHT22;50827;47.014;7.652;2023-08-12T05:58:35;20.50;99.90
3752;DHT22;50827;47.014;7.652;2023-08-12T06:01:02;20.60;99.90
3752;DHT22;50827;47.014;7.652;2023-08-12T06:03:29;20.70;99.90
3752;DHT22;50827;47.014;7.652;2023-08-12T06:05:56;20.70;99.90
3752;DHT22;50827;47.014;7.652;2023-08-12T06:08:23;20.70;99.90
3752;DHT22;50827;47.014;7.652;2023-08-12T06:10:50;20.80;99.90
3752;DHT22;50827;47.014;7.652;2023-08-12T06:13:16;20.80;99.90
3752;DHT22;50827;47.014;7.652;2023-08-12T06:15:43;20.90;99.90
3752;DHT22;50827;47.014;7.652;2023-08-12T06:18:10;20.90;99.90
3752;DHT22;50827;47.014;7.652;2023-08-12T06:20:37;20.90;99.90
3752;DHT22;50827;47.014;7.652;2023-08-12T06:23:04;20.90;99.90
3752;DHT22;50827;47.014;7.652;2023-08-12T06:25:30;21.00;99.90
3752;DHT22;50827;47.014;7.652;2023-08-12T06:27:57;21.00;99.90
3752;DHT22;50827;47.014;7.652;2023-08-12T06:30:25;21.00;99.90
3752;DHT22;50827;47.014;7.652;2023-08-12T06:32:51;21.00;99.90
3752;DHT22;50827;47.014;7.652;2023-08-12T06:35:18;21.10;99.90
3752;DHT22;50827;47.014;7.652;2023-08-12T06:37:45;21.20;99.90
3752;DHT22;50827;47.014;7.652;2023-08-12T06:40:12;21.20;99.90
3752;DHT22;50827;47.014;7.652;2023-08-12T06:42:39;21.30;99.90
3752;DHT22;50827;47.014;7.652;2023-08-12T06:45:06;21.40;99.90
3752;DHT22;50827;47.014;7.652;2023-08-12T06:47:33;21.40;99.90
3752;DHT22;50827;47.014;7.652;2023-08-12T06:50:00;21.50;99.90
3752;DHT22;50827;47.014;7.652;2023-08-12T06:52:29;21.50;99.90
3752;DHT22;50827;47.014;7.652;2023-08-12T06:54:56;21.50;99.90
3752;DHT22;50827;47.014;7.652;2023-08-12T06:57:23;21.50;99.90
3752;DHT22;50827;47.014;7.652;2023-08-12T06:59:50;21.50;99.90
3752;DHT22;50827;47.014;7.652;2023-08-12T07:02:17;21.50;99.90
3752;DHT22;50827;47.014;7.652;2023-08-12T07:04:44;21.60;99.90
3752;DHT22;50827;47.014;7.652;2023-08-12T07:07:10;21.60;99.90
3752;DHT22;50827;47.014;7.652;2023-08-12T07:09:37;21.60;99.90
3752;DHT22;50827;47.014;7.652;2023-08-12T07:12:04;21.70;99.90
3752;DHT22;50827;47.014;7.652;2023-08-12T07:14:31;21.70;99.90
3752;DHT22;50827;47.014;7.652;2023-08-12T07:16:58;21.80;99.90
3752;DHT22;50827;47.014;7.652;2023-08-12T07:19:24;21.90;99.90
3752;DHT22;50827;47.014;7.652;2023-08-12T07:21:51;21.90;99.90
3752;DHT22;50827;47.014;7.652;2023-08-12T07:24:18;22.00;99.90
3752;DHT22;50827;47.014;7.652;2023-08-12T07:26:45;22.00;99.90
3752;DHT22;50827;47.014;7.652;2023-08-12T07:29:13;22.10;99.90
3752;DHT22;50827;47.014;7.652;2023-08-12T07:31:40;22.20;99.90
3752;DHT22;50827;47.014;7.652;2023-08-12T07:34:07;22.20;99.90
3752;DHT22;50827;47.014;7.652;2023-08-12T07:36:34;22.30;99.90
3752;DHT22;50827;47.014;7.652;2023-08-12T07:39:00;22.30;99.90
3752;DHT22;50827;47.014;7.652;2023-08-12T07:41:27;22.30;99.90
3752;DHT22;50827;47.014;7.652;2023-08-12T07:43:54;22.40;99.90
3752;DHT22;50827;47.014;7.652;2023-08-12T07:46:21;22.40;99.90
3752;DHT22;50827;47.014;7.652;2023-08-12T07:48:48;22.60;99.90
3752;DHT22;50827;47.014;7.652;2023-08-12T07:51:15;22.60;99.90
3752;DHT22;50827;47.014;7.652;2023-08-12T07:53:42;22.70;99.90
3752;DHT22;50827;47.014;7.652;2023-08-12T07:56:11;22.80;99.90
3752;DHT22;50827;47.014;7.652;2023-08-12T07:58:38;22.80;99.90
3752;DHT22;50827;47.014;7.652;2023-08-12T08:01:04;22.90;99.90
3752;DHT22;50827;47.014;7.652;2023-08-12T08:03:31;23.00;99.90
3752;DHT22;50827;47.014;7.652;2023-08-12T08:05:58;23.10;99.90
3752;DHT22;50827;47.014;7.652;2023-08-12T08:08:25;23.10;99.90
3752;DHT22;50827;47.014;7.652;2023-08-12T08:10:52;23.20;99.90
3752;DHT22;50827;47.014;7.652;2023-08-12T08:13:18;23.20;99.90
3752;DHT22;50827;47.014;7.652;2023-08-12T08:15:45;23.30;99.90
3752;DHT22;50827;47.014;7.652;2023-08-12T08:18:12;23.30;99.90
3752;DHT22;50827;47.014;7.652;2023-08-12T08:20:42;23.30;99.90
3752;DHT22;50827;47.014;7.652;2023-08-12T08:23:12;23.30;99.90
3752;DHT22;50827;47.014;7.652;2023-08-12T08:25:39;23.40;99.90
3752;DHT22;50827;47.014;7.652;2023-08-12T08:28:05;23.30;99.90
3752;DHT22;50827;47.014;7.652;2023-08-12T08:30:32;23.30;99.90
3752;DHT22;50827;47.014;7.652;2023-08-12T08:32:59;23.30;99.90
3752;DHT22;50827;47.014;7.652;2023-08-12T08:35:25;23.30;99.90
3752;DHT22;50827;47.014;7.652;2023-08-12T08:37:53;23.20;99.90
3752;DHT22;50827;47.014;7.652;2023-08-12T08:40:20;23.20;99.90
3752;DHT22;50827;47.014;7.652;2023-08-12T08:42:51;23.20;99.90
3752;DHT22;50827;47.014;7.652;2023-08-12T08:45:21;23.10;99.90
3752;DHT22;50827;47.014;7.652;2023-08-12T08:47:49;23.10;99.90
3752;DHT22;50827;47.014;7.652;2023-08-12T08:50:17;23.10;99.90
3752;DHT22;50827;47.014;7.652;2023-08-12T08:52:44;23.00;99.90
3752;DHT22;50827;47.014;7.652;2023-08-12T08:55:12;22.90;99.90
3752;DHT22;50827;47.014;7.652;2023-08-12T08:57:43;22.90;99.90
3752;DHT22;50827;47.014;7.652;2023-08-12T09:00:14;22.80;99.90
3752;DHT22;50827;47.014;7.652;2023-08-12T09:02:45;22.80;99.90
3752;DHT22;50827;47.014;7.652;2023-08-12T09:05:14;22.70;99.90
3752;DHT22;50827;47.014;7.652;2023-08-12T09:07:43;22.70;99.90
3752;DHT22;50827;47.014;7.652;2023-08-12T09:10:11;22.70;99.90
3752;DHT22;50827;47.014;7.652;2023-08-12T09:12:42;22.70;99.90
3752;DHT22;50827;47.014;7.652;2023-08-12T09:15:10;22.80;99.90
3752;DHT22;50827;47.014;7.652;2023-08-12T09:17:37;22.80;99.90
3752;DHT22;50827;47.014;7.652;2023-08-12T09:20:06;22.80;99.90
3752;DHT22;50827;47.014;7.652;2023-08-12T09:22:40;22.90;99.90
3752;DHT22;50827;47.014;7.652;2023-08-12T09:25:09;22.90;99.90
3752;DHT22;50827;47.014;7.652;2023-08-12T09:27:36;22.90;99.90
3752;DHT22;50827;47.014;7.652;2023-08-12T09:30:06;22.90;99.90
3752;DHT22;50827;47.014;7.652;2023-08-12T09:32:34;22.80;99.90
3752;DHT22;50827;47.014;7.652;2023-08-12T09:35:05;22.90;99.90
3752;DHT22;50827;47.014;7.652;2023-08-12T09:37:33;22.90;99.90
3752;DHT22;50827;47.014;7.652;2023-08-12T09:40:00;22.90;99.90
3752;DHT22;50827;47.014;7.652;2023-08-12T09:42:28;22.90;99.90
3752;DHT22;50827;47.014;7.652;2023-08-12T09:44:56;23.00;99.90
3752;DHT22;50827;47.014;7.652;2023-08-12T09:47:25;23.00;99.90
3752;DHT22;50827;47.014;7.652;2023-08-12T09:49:52;23.00;99.90
3752;DHT22;50827;47.014;7.652;2023-08-12T09:52:19;23.00;99.90
3752;DHT22;50827;47.014;7.652;2023-08-12T09:54:45;22.90;99.90
3752;DHT22;50827;47.014;7.652;2023-08-12T09:57:14;22.90;99.90
3752;DHT22;50827;47.014;7.652;2023-08-12T09:59:45;22.90;99.90
3752;DHT22;50827;47.014;7.652;2023-08-12T10:02:15;22.90;99.90
3752;DHT22;50827;47.014;7.652;2023-08-12T10:04:45;22.80;99.90
3752;DHT22;50827;47.014;7.652;2023-08-12T10:07:12;22.70;99.90
3752;DHT22;50827;47.014;7.652;2023-08-12T10:09:40;22.70;99.90
3752;DHT22;50827;47.014;7.652;2023-08-12T10:12:08;22.70;99.90
3752;DHT22;50827;47.014;7.652;2023-08-12T10:14:36;22.70;99.90
3752;DHT22;50827;47.014;7.652;2023-08-12T10:17:03;22.60;99.90
3752;DHT22;50827;47.014;7.652;2023-08-12T10:19:32;22.60;99.90
3752;DHT22;50827;47.014;7.652;2023-08-12T10:22:02;22.60;99.90
3752;DHT22;50827;47.014;7.652;2023-08-12T10:24:30;22.70;99.90
3752;DHT22;50827;47.014;7.652;2023-08-12T10:26:57;22.70;99.90
3752;DHT22;50827;47.014;7.652;2023-08-12T10:29:25;22.70;99.90
3752;DHT22;50827;47.014;7.652;2023-08-12T10:31:51;22.80;99.90
3752;DHT22;50827;47.014;7.652;2023-08-12T10:34:25;22.90;99.90
3752;DHT22;50827;47.014;7.652;2023-08-12T10:36:56;23.00;99.90
3752;DHT22;50827;47.014;7.652;2023-08-12T10:39:32;23.10;99.90
3752;DHT22;50827;47.014;7.652;2023-08-12T10:41:59;23.10;99.90
3752;DHT22;50827;47.014;7.652;2023-08-12T10:44:39;23.20;99.90
3752;DHT22;50827;47.014;7.652;2023-08-12T10:47:10;23.20;99.90
3752;DHT22;50827;47.014;7.652;2023-08-12T10:49:47;23.10;99.90
3752;DHT22;50827;47.014;7.652;2023-08-12T10:52:31;23.20;99.90
3752;DHT22;50827;47.014;7.652;2023-08-12T10:55:17;23.20;99.90
3752;DHT22;50827;47.014;7.652;2023-08-12T10:57:45;23.20;99.90
3752;DHT22;50827;47.014;7.652;2023-08-12T11:00:19;23.30;99.90
3752;DHT22;50827;47.014;7.652;2023-08-12T11:02:53;23.20;99.90
3752;DHT22;50827;47.014;7.652;2023-08-12T11:05:20;23.30;99.90
3752;DHT22;50827;47.014;7.652;2023-08-12T11:08:00;23.40;99.90
3752;DHT22;50827;47.014;7.652;2023-08-12T11:10:31;23.40;99.90
3752;DHT22;50827;47.014;7.652;2023-08-12T11:13:01;23.60;99.90
3752;DHT22;50827;47.014;7.652;2023-08-12T11:20:32;23.80;99.90
3752;DHT22;50827;47.014;7.652;2023-08-12T11:23:00;23.80;99.90
3752;DHT22;50827;47.014;7.652;2023-08-12T11:25:28;23.90;99.90
3752;DHT22;50827;47.014;7.652;2023-08-12T11:27:56;24.00;99.90
3752;DHT22;50827;47.014;7.652;2023-08-12T11:30:23;24.00;99.90
3752;DHT22;50827;47.014;7.652;2023-08-12T11:32:52;24.10;99.90
3752;DHT22;50827;47.014;7.652;2023-08-12T11:35:21;24.30;99.90
3752;DHT22;50827;47.014;7.652;2023-08-12T11:37:50;24.40;99.90
3752;DHT22;50827;47.014;7.652;2023-08-12T11:40:17;24.40;99.90
3752;DHT22;50827;47.014;7.652;2023-08-12T11:42:45;24.50;99.90
3752;DHT22;50827;47.014;7.652;2023-08-12T11:45:15;24.60;99.90
3752;DHT22;50827;47.014;7.652;2023-08-12T11:47:42;24.70;99.90
3752;DHT22;50827;47.014;7.652;2023-08-12T11:50:11;24.80;99.90
3752;DHT22;50827;47.014;7.652;2023-08-12T11:52:39;24.90;99.90
3752;DHT22;50827;47.014;7.652;2023-08-12T11:55:06;24.90;99.90
3752;DHT22;50827;47.014;7.652;2023-08-12T11:57:33;25.00;99.90
3752;DHT22;50827;47.014;7.652;2023-08-12T12:00:05;25.10;99.90
3752;DHT22;50827;47.014;7.652;2023-08-12T12:02:52;25.20;99.90
3752;DHT22;50827;47.014;7.652;2023-08-12T12:05:26;25.20;99.90
3752;DHT22;50827;47.014;7.652;2023-08-12T12:07:53;25.20;99.90
3752;DHT22;50827;47.014;7.652;2023-08-12T12:10:28;25.20;99.90
3752;DHT22;50827;47.014;7.652;2023-08-12T12:13:01;25.20;99.90
3752;DHT22;50827;47.014;7.652;2023-08-12T12:15:28;25.30;99.90
3752;DHT22;50827;47.014;7.652;2023-08-12T12:17:55;25.40;99.90
3752;DHT22;50827;47.014;7.652;2023-08-12T12:20:22;25.40;99.90
3752;DHT22;50827;47.014;7.652;2023-08-12T12:22:49;25.50;99.90
3752;DHT22;50827;47.014;7.652;2023-08-12T12:25:17;25.50;99.90
3752;DHT22;50827;47.014;7.652;2023-08-12T12:27:47;25.60;99.90
3752;DHT22;50827;47.014;7.652;2023-08-12T12:30:15;25.60;99.90
3752;DHT22;50827;47.014;7.652;2023-08-12T12:32:42;25.70;99.90
3752;DHT22;50827;47.014;7.652;2023-08-12T12:35:09;25.70;99.90
3752;DHT22;50827;47.014;7.652;2023-08-12T12:37:36;25.80;99.90
3752;DHT22;50827;47.014;7.652;2023-08-12T12:40:03;25.90;99.90
3752;DHT22;50827;47.014;7.652;2023-08-12T12:42:30;26.00;99.90
3752;DHT22;50827;47.014;7.652;2023-08-12T12:44:57;26.10;99.90
3752;DHT22;50827;47.014;7.652;2023-08-12T12:47:24;26.10;99.90
3752;DHT22;50827;47.014;7.652;2023-08-12T12:49:53;26.20;99.90
3752;DHT22;50827;47.014;7.652;2023-08-12T12:52:20;26.30;99.90
3752;DHT22;50827;47.014;7.652;2023-08-12T12:54:47;26.40;99.90
3752;DHT22;50827;47.014;7.652;2023-08-12T12:57:13;26.50;99.90
3752;DHT22;50827;47.014;7.652;2023-08-12T12:59:40;26.50;99.90
3752;DHT22;50827;47.014;7.652;2023-08-12T13:02:07;26.60;99.90
3752;DHT22;50827;47.014;7.652;2023-08-12T13:04:34;26.70;99.90
3752;DHT22;50827;47.014;7.652;2023-08-12T13:07:01;26.80;99.90
3752;DHT22;50827;47.014;7.652;2023-08-12T13:09:28;26.80;99.90
3752;DHT22;50827;47.014;7.652;2023-08-12T13:11:54;26.90;99.90
3752;DHT22;50827;47.014;7.652;2023-08-12T13:14:23;27.00;99.90
3752;DHT22;50827;47.014;7.652;2023-08-12T13:16:50;27.00;99.90
3752;DHT22;50827;47.014;7.652;2023-08-12T13:19:17;27.10;99.90
3752;DHT22;50827;47.014;7.652;2023-08-12T13:21:44;27.20;99.90
3752;DHT22;50827;47.014;7.652;2023-08-12T13:24:11;27.20;99.90
3752;DHT22;50827;47.014;7.652;2023-08-12T13:26:37;27.20;99.90
3752;DHT22;50827;47.014;7.652;2023-08-12T13:29:04;27.20;99.90
3752;DHT22;50827;47.014;7.652;2023-08-12T13:31:31;27.20;99.90
3752;DHT22;50827;47.014;7.652;2023-08-12T13:33:58;27.20;99.90
3752;DHT22;50827;47.014;7.652;2023-08-12T13:36:25;27.20;99.90
3752;DHT22;50827;47.014;7.652;2023-08-12T13:38:51;27.20;99.90
3752;DHT22;50827;47.014;7.652;2023-08-12T13:41:18;27.20;99.90
3752;DHT22;50827;47.014;7.652;2023-08-12T13:43:45;27.20;99.90
3752;DHT22;50827;47.014;7.652;2023-08-12T13:46:11;27.10;99.90
3752;DHT22;50827;47.014;7.652;2023-08-12T13:48:39;27.20;99.90
3752;DHT22;50827;47.014;7.652;2023-08-12T13:51:06;27.20;99.90
3752;DHT22;50827;47.014;7.652;2023-08-12T13:53:32;27.20;99.90
3752;DHT22;50827;47.014;7.652;2023-08-12T13:55:59;27.20;99.90
3752;DHT22;50827;47.014;7.652;2023-08-12T13:58:26;27.20;99.90
3752;DHT22;50827;47.014;7.652;2023-08-12T14:00:53;27.20;99.90
3752;DHT22;50827;47.014;7.652;2023-08-12T14:03:19;27.20;99.90
3752;DHT22;50827;47.014;7.652;2023-08-12T14:05:46;27.30;99.90
3752;DHT22;50827;47.014;7.652;2023-08-12T14:08:13;27.40;99.90
3752;DHT22;50827;47.014;7.652;2023-08-12T14:10:39;27.50;99.90
3752;DHT22;50827;47.014;7.652;2023-08-12T14:13:06;27.60;99.90
3752;DHT22;50827;47.014;7.652;2023-08-12T14:15:33;27.70;99.90
3752;DHT22;50827;47.014;7.652;2023-08-12T14:18:01;27.70;99.90
3752;DHT22;50827;47.014;7.652;2023-08-12T14:20:28;27.80;99.90
3752;DHT22;50827;47.014;7.652;2023-08-12T14:22:54;27.80;99.90
3752;DHT22;50827;47.014;7.652;2023-08-12T14:25:21;27.90;99.90
3752;DHT22;50827;47.014;7.652;2023-08-12T14:27:48;27.90;99.90
3752;DHT22;50827;47.014;7.652;2023-08-12T14:30:18;28.00;99.90
3752;DHT22;50827;47.014;7.652;2023-08-12T14:32:45;28.00;99.90
3752;DHT22;50827;47.014;7.652;2023-08-12T14:35:13;28.00;99.90
3752;DHT22;50827;47.014;7.652;2023-08-12T14:37:40;28.10;99.90
3752;DHT22;50827;47.014;7.652;2023-08-12T14:40:07;28.10;99.90
3752;DHT22;50827;47.014;7.652;2023-08-12T14:42:35;28.20;99.90
3752;DHT22;50827;47.014;7.652;2023-08-12T14:45:03;28.30;99.90
3752;DHT22;50827;47.014;7.652;2023-08-12T14:47:29;28.30;99.90
3752;DHT22;50827;47.014;7.652;2023-08-12T14:49:57;28.30;99.90
3752;DHT22;50827;47.014;7.652;2023-08-12T14:52:24;28.40;99.90
3752;DHT22;50827;47.014;7.652;2023-08-12T14:54:50;28.30;99.90
3752;DHT22;50827;47.014;7.652;2023-08-12T14:57:17;28.30;99.90
3752;DHT22;50827;47.014;7.652;2023-08-12T14:59:44;28.20;99.90
3752;DHT22;50827;47.014;7.652;2023-08-12T15:02:13;28.10;99.90
3752;DHT22;50827;47.014;7.652;2023-08-12T15:04:39;28.00;99.90
3752;DHT22;50827;47.014;7.652;2023-08-12T15:07:07;28.00;99.90
3752;DHT22;50827;47.014;7.652;2023-08-12T15:09:33;28.00;99.90
3752;DHT22;50827;47.014;7.652;2023-08-12T15:12:00;27.90;99.90
3752;DHT22;50827;47.014;7.652;2023-08-12T15:14:27;27.90;99.90
3752;DHT22;50827;47.014;7.652;2023-08-12T15:16:55;27.90;99.90
3752;DHT22;50827;47.014;7.652;2023-08-12T15:19:22;27.90;99.90
3752;DHT22;50827;47.014;7.652;2023-08-12T15:21:51;27.90;99.90
3752;DHT22;50827;47.014;7.652;2023-08-12T15:24:18;27.90;99.90
3752;DHT22;50827;47.014;7.652;2023-08-12T15:26:44;27.90;99.90
3752;DHT22;50827;47.014;7.652;2023-08-12T15:29:11;27.90;99.90
3752;DHT22;50827;47.014;7.652;2023-08-12T15:31:38;28.00;99.90
3752;DHT22;50827;47.014;7.652;2023-08-12T15:34:04;27.90;99.90
3752;DHT22;50827;47.014;7.652;2023-08-12T15:36:31;28.00;99.90
3752;DHT22;50827;47.014;7.652;2023-08-12T15:39:00;28.00;99.90
3752;DHT22;50827;47.014;7.652;2023-08-12T15:41:27;28.00;99.90
3752;DHT22;50827;47.014;7.652;2023-08-12T15:43:54;28.00;99.90
3752;DHT22;50827;47.014;7.652;2023-08-12T15:46:20;28.20;99.90
3752;DHT22;50827;47.014;7.652;2023-08-12T15:48:47;28.20;99.90
3752;DHT22;50827;47.014;7.652;2023-08-12T15:51:14;28.30;99.90
3752;DHT22;50827;47.014;7.652;2023-08-12T15:53:41;28.30;99.90